Bandar-E Anzali, Iran
Current Conditions -  °F | °C
As of 10:00 AM on Monday 22 Dec 2014 (Local Time) from OIGG Reporting Station
Moderate Fog Moderate Fog  
Wind Chill: 46°   Ceiling: 200
Heat Index: 46°   Visibility: 0.56mi
Dew Point: 46°   Wind: 2mph
Humidity: 100%   Direction: NA
Pressure: 29.91"   Gusts: NA
Location:  37.47°N, 49.45°E
Report Text: OIGG 220700Z VRB02KT 0900 FG VV002 08/08 Q1013
Loading
Personal Weather Stations






























Interactive Weather Map New forecast layout! Learn more

10-Day Weather Forecast

Advertisements
Track Severe Weather on mobile